createdAt,value
2022-08-07T00:00:18.542Z,1.45
2022-08-07T00:02:36.711Z,1.65
2022-08-07T00:04:41.585Z,1.45
2022-08-07T00:06:52.136Z,1.40
2022-08-07T00:08:53.767Z,1.30
2022-08-07T00:10:57.275Z,1.40
2022-08-07T00:13:02.457Z,1.20
2022-08-07T00:15:11.957Z,1.35
2022-08-07T00:17:16.188Z,1.30
2022-08-07T00:19:21.589Z,1.58
2022-08-07T00:21:56.078Z,1.48
2022-08-07T00:23:48.583Z,1.90
2022-08-07T00:25:58.199Z,1.83
2022-08-07T00:28:00.510Z,1.63
2022-08-07T00:30:02.980Z,1.67
2022-08-07T00:32:05.794Z,1.30
2022-08-07T00:34:08.779Z,1.50
2022-08-07T00:36:10.948Z,1.30
2022-08-07T00:38:13.303Z,1.17
2022-08-07T00:40:16.987Z,1.05
2022-08-07T00:42:38.547Z,0.90
2022-08-07T00:44:41.439Z,1.08
2022-08-07T00:46:43.211Z,1.30
2022-08-07T00:48:44.830Z,1.05
2022-08-07T00:50:51.809Z,1.30
2022-08-07T00:52:53.367Z,1.10
2022-08-07T00:54:54.732Z,1.05
2022-08-07T00:56:56.049Z,1.15
2022-08-07T00:58:58.242Z,1.00
2022-08-07T01:00:59.620Z,0.73
2022-08-07T01:03:01.053Z,1.20
2022-08-07T01:05:06.038Z,0.90
2022-08-07T01:07:21.779Z,1.10
2022-08-07T01:10:03.922Z,1.20
2022-08-07T01:12:23.797Z,1.00
2022-08-07T01:14:07.718Z,1.08
2022-08-07T01:16:10.192Z,1.00
2022-08-07T01:18:16.988Z,1.00
2022-08-07T01:20:21.851Z,1.08
2022-08-07T01:22:32.142Z,0.95
2022-08-07T01:24:33.963Z,1.00
2022-08-07T01:26:36.755Z,0.85
2022-08-07T01:28:39.140Z,0.90
2022-08-07T01:30:42.136Z,0.90
2022-08-07T01:32:43.679Z,0.80
2022-08-07T01:34:47.452Z,0.80
2022-08-07T01:36:52.729Z,0.90
2022-08-07T01:38:59.617Z,0.95
2022-08-07T01:41:01.983Z,1.00
2022-08-07T01:43:03.511Z,1.00
2022-08-07T01:45:05.369Z,0.90
2022-08-07T01:48:16.652Z,1.10
2022-08-07T01:49:32.837Z,1.00
2022-08-07T01:52:01.487Z,1.00
2022-08-07T01:54:09.665Z,0.98
2022-08-07T01:56:16.132Z,0.90
2022-08-07T01:58:29.706Z,0.98
2022-08-07T02:00:35.661Z,1.00
2022-08-07T02:03:11.942Z,1.00
2022-08-07T02:05:16.157Z,1.08
2022-08-07T02:07:51.294Z,0.88
2022-08-07T02:09:58.492Z,1.10
2022-08-07T02:12:17.765Z,1.05
2022-08-07T02:14:35.839Z,0.95
2022-08-07T02:16:42.102Z,0.93
2022-08-07T02:18:47.237Z,1.02
2022-08-07T02:20:51.973Z,1.00
2022-08-07T02:23:01.713Z,1.08
2022-08-07T02:25:07.095Z,1.17
2022-08-07T02:27:16.769Z,0.93
2022-08-07T02:29:18.189Z,1.13
2022-08-07T02:31:29.206Z,1.15
2022-08-07T02:33:41.927Z,2.00
2022-08-07T02:36:29.245Z,1.50
2022-08-07T02:38:16.121Z,1.40
2022-08-07T02:40:34.956Z,1.20
2022-08-07T02:42:37.273Z,0.93
2022-08-07T02:44:42.256Z,0.85
2022-08-07T02:46:52.804Z,1.10
2022-08-07T02:48:54.698Z,0.88
2022-08-07T02:50:57.131Z,1.00
2022-08-07T02:53:07.310Z,0.98
2022-08-07T02:55:28.288Z,1.02
2022-08-07T02:57:37.794Z,2.25
2022-08-07T02:59:41.374Z,2.53
2022-08-07T03:01:47.336Z,1.70
2022-08-07T03:03:54.824Z,1.98
2022-08-07T03:05:58.218Z,1.80
2022-08-07T03:08:07.383Z,1.00
2022-08-07T03:10:11.710Z,0.88
2022-08-07T03:12:22.604Z,0.85
2022-08-07T03:14:36.417Z,1.10
2022-08-07T03:16:38.585Z,1.10
2022-08-07T03:18:40.119Z,0.80
2022-08-07T03:20:46.144Z,0.80
2022-08-07T03:22:50.172Z,1.05
2022-08-07T03:24:51.859Z,1.00
2022-08-07T03:26:58.422Z,0.85
2022-08-07T03:29:02.065Z,0.90
2022-08-07T03:31:19.387Z,1.10
2022-08-07T03:33:26.610Z,0.90
2022-08-07T03:35:43.395Z,1.10
2022-08-07T03:37:53.237Z,1.00
2022-08-07T03:40:13.328Z,0.82
2022-08-07T03:42:18.159Z,0.90
2022-08-07T03:44:34.417Z,1.00
2022-08-07T03:46:37.605Z,0.93
2022-08-07T03:49:02.485Z,1.05
2022-08-07T03:51:04.866Z,0.80
2022-08-07T03:53:06.881Z,0.95
2022-08-07T03:55:08.468Z,1.00
2022-08-07T03:57:10.642Z,1.10
2022-08-07T03:59:33.721Z,0.93
2022-08-07T04:01:36.917Z,1.13
2022-08-07T04:03:49.749Z,1.00
2022-08-07T04:05:58.782Z,1.40
2022-08-07T04:08:01.796Z,1.00
2022-08-07T04:10:04.863Z,0.93
2022-08-07T04:12:24.570Z,1.08
2022-08-07T04:14:37.430Z,1.00
2022-08-07T04:16:43.018Z,0.98
2022-08-07T04:19:12.827Z,0.93
2022-08-07T04:21:16.949Z,1.20
2022-08-07T04:23:19.308Z,1.10
2022-08-07T04:25:23.983Z,1.10
2022-08-07T04:27:35.420Z,1.27
2022-08-07T04:29:48.862Z,1.10
2022-08-07T04:32:02.967Z,1.10
2022-08-07T04:34:16.498Z,1.30
2022-08-07T04:36:18.601Z,1.00
2022-08-07T04:38:27.507Z,1.10
2022-08-07T04:40:32.365Z,1.10
2022-08-07T04:42:34.401Z,1.08
2022-08-07T04:44:36.976Z,1.08
2022-08-07T04:47:08.097Z,1.10
2022-08-07T04:49:24.209Z,1.00
2022-08-07T04:51:52.618Z,1.00
2022-08-07T04:54:05.746Z,0.90
2022-08-07T04:58:15.883Z,1.00
2022-08-07T04:59:17.141Z,1.17
2022-08-07T05:03:59.777Z,1.00
2022-08-07T05:05:52.711Z,1.10
2022-08-07T05:08:01.145Z,0.95
2022-08-07T05:10:04.679Z,1.10
2022-08-07T05:12:09.504Z,0.90
2022-08-07T05:14:52.258Z,0.98
2022-08-07T05:16:35.002Z,0.95
2022-08-07T05:18:48.762Z,0.98
2022-08-07T05:20:52.598Z,0.90
2022-08-07T05:22:56.774Z,1.23
2022-08-07T05:24:59.545Z,1.00
2022-08-07T05:27:01.986Z,0.90
2022-08-07T05:29:04.695Z,1.00
2022-08-07T05:31:06.503Z,1.00
2022-08-07T05:33:09.370Z,0.90
2022-08-07T05:35:12.198Z,1.02
2022-08-07T05:37:14.873Z,1.10
2022-08-07T05:40:13.568Z,1.05
2022-08-07T05:42:00.294Z,1.13
2022-08-07T05:44:12.191Z,1.20
2022-08-07T05:46:16.373Z,1.10
2022-08-07T05:48:18.696Z,0.95
2022-08-07T05:50:31.101Z,0.98
2022-08-07T05:52:32.913Z,0.90
2022-08-07T05:54:44.546Z,1.13
2022-08-07T05:58:56.430Z,1.17
2022-08-07T06:01:00.309Z,1.10
2022-08-07T06:03:09.522Z,1.15
2022-08-07T06:05:15.453Z,1.10
2022-08-07T06:07:22.727Z,0.90
2022-08-07T06:10:03.801Z,0.80
2022-08-07T06:11:46.741Z,1.00
2022-08-07T06:14:12.820Z,1.00
2022-08-07T06:16:13.232Z,0.80
2022-08-07T06:18:15.733Z,1.25
2022-08-07T06:20:31.756Z,1.00
2022-08-07T06:22:38.856Z,1.00
2022-08-07T06:24:52.900Z,1.08
2022-08-07T06:26:59.859Z,1.13
2022-08-07T06:29:06.541Z,1.20
2022-08-07T06:31:08.069Z,1.20
2022-08-07T06:33:15.639Z,1.48
2022-08-07T06:35:18.145Z,1.20
2022-08-07T06:37:20.583Z,1.90
2022-08-07T06:40:16.544Z,1.45
2022-08-07T06:42:00.737Z,1.23
2022-08-07T06:44:10.737Z,1.25
2022-08-07T06:46:13.015Z,1.38
2022-08-07T06:48:14.694Z,1.25
2022-08-07T06:50:18.950Z,1.38
2022-08-07T06:52:31.884Z,1.35
2022-08-07T06:55:33.772Z,1.40
2022-08-07T06:56:59.876Z,1.27
2022-08-07T07:00:12.087Z,1.30
2022-08-07T07:01:22.986Z,1.40
2022-08-07T07:03:39.811Z,1.45
2022-08-07T07:06:03.450Z,1.40
2022-08-07T07:08:12.566Z,1.25
2022-08-07T07:10:30.360Z,1.20
2022-08-07T07:12:33.578Z,1.30
2022-08-07T07:14:55.390Z,1.20
2022-08-07T07:16:59.464Z,1.52
2022-08-07T07:19:40.965Z,1.60
2022-08-07T07:22:04.118Z,1.40
2022-08-07T07:24:09.336Z,1.45
2022-08-07T07:26:33.869Z,1.20
2022-08-07T07:29:39.461Z,2.58
2022-08-07T07:31:12.330Z,1.50
2022-08-07T07:33:19.799Z,1.80
2022-08-07T07:35:22.454Z,1.88
2022-08-07T07:37:49.809Z,2.17
2022-08-07T07:39:54.732Z,2.08
2022-08-07T07:42:13.004Z,1.63
2022-08-07T07:44:21.498Z,2.38
2022-08-07T07:46:36.836Z,2.58
2022-08-07T07:49:00.227Z,1.83
2022-08-07T07:51:11.391Z,1.80
2022-08-07T07:53:23.095Z,1.77
2022-08-07T07:55:27.647Z,1.80
2022-08-07T07:57:52.476Z,2.22
2022-08-07T07:59:55.534Z,2.78
2022-08-07T08:02:04.747Z,2.00
2022-08-07T08:04:11.504Z,2.20
2022-08-07T08:06:13.760Z,2.20
2022-08-07T08:08:36.048Z,2.22
2022-08-07T08:10:38.775Z,2.05
2022-08-07T08:12:52.158Z,2.20
2022-08-07T08:15:00.718Z,2.20
2022-08-07T08:18:36.982Z,2.15
2022-08-07T08:20:15.871Z,2.13
2022-08-07T08:22:07.891Z,2.20
2022-08-07T08:24:44.909Z,1.90
2022-08-07T08:27:09.198Z,2.33
2022-08-07T08:29:12.735Z,2.85
2022-08-07T08:31:22.759Z,2.60
2022-08-07T08:33:33.372Z,3.00
2022-08-07T08:35:39.480Z,2.80
2022-08-07T08:38:00.761Z,2.40
2022-08-07T08:40:12.257Z,2.20
2022-08-07T08:42:29.902Z,2.70
2022-08-07T08:44:49.016Z,2.20
2022-08-07T08:46:53.127Z,3.22
2022-08-07T08:48:59.449Z,3.08
2022-08-07T08:51:03.413Z,2.60
2022-08-07T08:53:09.249Z,2.20
2022-08-07T08:55:21.150Z,2.92
2022-08-07T08:57:51.830Z,2.90
2022-08-07T09:00:02.089Z,2.60
2022-08-07T09:02:37.434Z,2.83
2022-08-07T09:04:43.220Z,3.42
2022-08-07T09:06:47.836Z,3.28
2022-08-07T09:09:13.432Z,3.22
2022-08-07T09:11:43.280Z,3.30
2022-08-07T09:14:04.064Z,3.15
2022-08-07T09:16:22.086Z,3.40
2022-08-07T09:18:28.239Z,3.58
2022-08-07T09:20:58.473Z,3.90
2022-08-07T09:24:54.027Z,3.60
2022-08-07T09:25:54.699Z,3.15
2022-08-07T09:28:06.465Z,3.13
2022-08-07T09:30:48.848Z,3.00
2022-08-07T09:33:05.396Z,3.13
2022-08-07T09:36:03.066Z,3.88
2022-08-07T09:38:00.557Z,4.10
2022-08-07T09:40:07.761Z,3.42
2022-08-07T09:42:23.137Z,3.35
2022-08-07T09:44:58.672Z,3.40
2022-08-07T09:47:55.665Z,3.90
2022-08-07T09:50:00.977Z,3.72
2022-08-07T09:52:33.893Z,3.78
2022-08-07T09:54:40.191Z,3.47
2022-08-07T09:56:56.642Z,2.80
2022-08-07T09:59:01.325Z,3.60
2022-08-07T10:01:51.081Z,3.42
2022-08-07T10:04:05.724Z,3.33
2022-08-07T10:08:33.998Z,3.83
2022-08-07T10:11:00.357Z,3.55
2022-08-07T10:12:59.612Z,3.38
2022-08-07T10:15:18.530Z,3.42
2022-08-07T10:17:23.168Z,3.88
2022-08-07T10:19:32.566Z,3.30
2022-08-07T10:22:12.231Z,3.95
2022-08-07T10:24:39.935Z,3.40
2022-08-07T10:27:06.709Z,3.70
2022-08-07T10:31:38.607Z,3.40
2022-08-07T10:34:06.503Z,4.00
2022-08-07T10:36:29.677Z,3.25
2022-08-07T10:38:51.137Z,3.58
2022-08-07T10:40:52.605Z,3.53
2022-08-07T10:43:12.624Z,3.35
2022-08-07T10:45:45.083Z,3.28
2022-08-07T10:47:52.657Z,3.67
2022-08-07T10:49:58.139Z,3.50
2022-08-07T10:52:14.256Z,2.90
2022-08-07T10:54:28.842Z,4.03
2022-08-07T10:56:51.622Z,7.60
2022-08-07T10:59:00.334Z,10.15
2022-08-07T11:01:15.491Z,18.80
2022-08-07T11:03:23.329Z,8.25
2022-08-07T11:05:51.074Z,8.25
2022-08-07T11:08:11.858Z,20.65
2022-08-07T11:10:20.098Z,11.18
2022-08-07T11:12:32.149Z,13.85
2022-08-07T11:14:46.452Z,13.85
2022-08-07T11:17:22.962Z,14.35
2022-08-07T11:19:36.524Z,8.85
2022-08-07T11:22:19.192Z,12.93
2022-08-07T11:24:39.299Z,6.47
2022-08-07T11:27:07.083Z,5.13
2022-08-07T11:29:42.229Z,5.20
2022-08-07T11:31:59.290Z,8.90
2022-08-07T11:34:20.871Z,4.78
2022-08-07T11:36:30.770Z,5.15
2022-08-07T11:39:14.581Z,4.30
2022-08-07T11:41:29.700Z,4.75
2022-08-07T11:44:12.072Z,4.10
2022-08-07T11:46:17.286Z,4.00
2022-08-07T11:48:29.178Z,3.75
2022-08-07T11:53:35.209Z,4.00
2022-08-07T11:56:12.055Z,3.55
2022-08-07T11:58:16.492Z,3.40
2022-08-07T12:00:27.738Z,3.28
2022-08-07T12:02:49.832Z,3.30
2022-08-07T12:04:53.626Z,3.65
2022-08-07T12:07:27.043Z,3.80
2022-08-07T12:09:34.955Z,4.50
2022-08-07T12:12:09.484Z,11.20
2022-08-07T12:14:08.880Z,7.22
2022-08-07T12:16:30.103Z,18.08
2022-08-07T12:18:37.922Z,8.55
2022-08-07T12:20:55.922Z,5.35
2022-08-07T12:23:14.479Z,6.65
2022-08-07T12:26:06.069Z,7.10
2022-08-07T12:28:24.031Z,6.68
2022-08-07T12:30:34.680Z,6.00
2022-08-07T12:32:37.866Z,7.63
2022-08-07T12:34:42.134Z,4.30
2022-08-07T12:36:53.246Z,4.80
2022-08-07T12:38:57.550Z,4.22
2022-08-07T12:40:59.919Z,8.95
2022-08-07T12:43:09.411Z,5.22
2022-08-07T12:45:19.733Z,7.35
2022-08-07T12:47:49.371Z,16.02
2022-08-07T12:49:53.287Z,10.40
2022-08-07T12:52:14.349Z,15.60
2022-08-07T12:54:38.873Z,6.70
2022-08-07T12:56:51.534Z,7.35
2022-08-07T12:58:59.620Z,5.18
2022-08-07T13:01:29.325Z,6.07
2022-08-07T13:03:56.129Z,5.35
2022-08-07T13:09:12.484Z,27.17
2022-08-07T13:12:01.927Z,22.52
2022-08-07T13:14:19.209Z,22.95
2022-08-07T13:16:30.988Z,5.03
2022-08-07T13:18:32.295Z,17.95
2022-08-07T13:20:35.530Z,16.20
2022-08-07T13:22:40.643Z,2.92
2022-08-07T13:25:04.020Z,3.83
2022-08-07T13:27:14.510Z,4.50
2022-08-07T13:29:34.838Z,3.80
2022-08-07T13:31:46.135Z,6.65
2022-08-07T13:34:33.089Z,4.57
2022-08-07T13:36:25.705Z,11.40
2022-08-07T13:38:36.414Z,3.00
2022-08-07T13:40:57.179Z,3.00
2022-08-07T13:43:12.097Z,4.65
2022-08-07T13:46:07.075Z,3.55
2022-08-07T13:48:06.436Z,3.47
2022-08-07T13:50:34.004Z,2.90
2022-08-07T13:52:30.759Z,2.85
2022-08-07T13:54:36.657Z,2.85
2022-08-07T13:56:41.343Z,2.80
2022-08-07T13:59:05.537Z,2.47
2022-08-07T14:01:20.461Z,2.88
2022-08-07T14:03:29.128Z,2.63
2022-08-07T14:05:49.296Z,4.18
2022-08-07T14:07:59.611Z,2.33
2022-08-07T14:10:21.762Z,2.80
2022-08-07T14:12:41.896Z,2.97
2022-08-07T14:14:58.779Z,3.13
2022-08-07T14:17:32.111Z,3.05
2022-08-07T14:20:42.187Z,2.67
2022-08-07T14:22:03.033Z,2.70
2022-08-07T14:24:08.629Z,3.00
2022-08-07T14:26:28.204Z,2.90
2022-08-07T14:28:57.651Z,3.05
2022-08-07T14:30:53.138Z,3.00
2022-08-07T14:32:55.634Z,3.20
2022-08-07T14:34:57.824Z,2.85
2022-08-07T14:37:03.144Z,2.83
2022-08-07T14:39:05.016Z,2.90
2022-08-07T14:41:12.469Z,2.50
2022-08-07T14:45:54.651Z,2.83
2022-08-07T14:47:58.719Z,3.28
2022-08-07T14:50:04.949Z,2.75
2022-08-07T14:52:10.165Z,2.55
2022-08-07T14:54:31.137Z,2.60
2022-08-07T14:56:38.945Z,2.65
2022-08-07T15:01:21.398Z,2.90
2022-08-07T15:03:52.302Z,2.47
2022-08-07T15:05:54.910Z,2.40
2022-08-07T15:08:08.727Z,2.92
2022-08-07T15:10:26.688Z,2.50
2022-08-07T15:12:31.197Z,2.70
2022-08-07T15:14:33.304Z,2.58
2022-08-07T15:16:39.463Z,2.50
2022-08-07T15:18:57.074Z,2.15
2022-08-07T15:21:08.269Z,2.65
2022-08-07T15:25:14.123Z,2.38
2022-08-07T15:25:56.320Z,2.53
2022-08-07T15:28:32.398Z,2.40
2022-08-07T15:30:20.593Z,2.38
2022-08-07T15:32:38.881Z,2.63
2022-08-07T15:34:57.002Z,2.53
2022-08-07T15:37:04.225Z,2.40
2022-08-07T15:39:13.111Z,2.42
2022-08-07T15:41:24.126Z,2.40
2022-08-07T15:43:55.707Z,2.30
2022-08-07T15:46:03.516Z,2.77
2022-08-07T15:48:21.951Z,2.70
2022-08-07T15:50:37.672Z,2.40
2022-08-07T15:52:51.709Z,2.20
2022-08-07T15:54:56.671Z,2.42
2022-08-07T15:57:05.177Z,2.58
2022-08-07T15:59:16.448Z,2.58
2022-08-07T16:01:21.629Z,2.35
2022-08-07T16:03:46.371Z,2.65
2022-08-07T16:05:47.952Z,2.22
2022-08-07T16:08:33.333Z,2.42
2022-08-07T16:10:16.037Z,2.30
2022-08-07T16:12:30.186Z,2.90
2022-08-07T16:14:50.397Z,2.40
2022-08-07T16:16:57.022Z,2.45
2022-08-07T16:19:13.878Z,2.40
2022-08-07T16:22:02.311Z,2.30
2022-08-07T16:24:34.434Z,1.98
2022-08-07T16:26:59.315Z,2.30
2022-08-07T16:29:18.569Z,2.72
2022-08-07T16:31:51.818Z,2.13
2022-08-07T16:34:03.157Z,2.58
2022-08-07T16:36:20.847Z,2.35
2022-08-07T16:39:01.195Z,2.40
2022-08-07T16:41:16.923Z,2.40
2022-08-07T16:44:02.764Z,2.17
2022-08-07T16:47:06.805Z,1.92
2022-08-07T16:50:20.404Z,2.35
2022-08-07T16:51:54.530Z,2.30
2022-08-07T16:54:55.263Z,2.35
2022-08-07T16:56:59.652Z,2.13
2022-08-07T16:59:11.095Z,2.40
2022-08-07T17:01:22.476Z,2.70
2022-08-07T17:03:59.539Z,2.58
2022-08-07T17:06:29.269Z,2.00
2022-08-07T17:09:04.359Z,2.10
2022-08-07T17:10:56.534Z,2.13
2022-08-07T17:13:16.363Z,2.00
2022-08-07T17:15:44.605Z,2.20
2022-08-07T17:17:48.519Z,2.15
2022-08-07T17:20:02.484Z,2.03
2022-08-07T17:22:15.509Z,2.05
2022-08-07T17:24:23.625Z,1.90
2022-08-07T17:26:50.175Z,2.40
2022-08-07T17:28:58.869Z,3.33
2022-08-07T17:31:23.240Z,2.00
2022-08-07T17:34:09.854Z,2.50
2022-08-07T17:36:20.546Z,2.05
2022-08-07T17:38:45.718Z,2.53
2022-08-07T17:42:02.531Z,2.28
2022-08-07T17:44:01.636Z,2.75
2022-08-07T17:46:18.324Z,2.33
2022-08-07T17:48:30.859Z,2.10
2022-08-07T17:50:48.431Z,2.35
2022-08-07T17:53:06.342Z,2.30
2022-08-07T17:55:12.567Z,2.15
2022-08-07T17:57:56.434Z,2.58
2022-08-07T17:59:58.015Z,2.50
2022-08-07T18:02:36.272Z,2.80
2022-08-07T18:04:46.779Z,14.95
2022-08-07T18:09:01.735Z,120.70
2022-08-07T18:12:16.709Z,189.95
2022-08-07T18:13:52.243Z,152.77
2022-08-07T18:16:05.296Z,12.13
2022-08-07T18:18:46.955Z,11.40
2022-08-07T18:21:06.351Z,3.55
2022-08-07T18:23:42.698Z,3.40
2022-08-07T18:25:40.679Z,3.55
2022-08-07T18:27:51.253Z,3.55
2022-08-07T18:30:07.142Z,6.43
2022-08-07T18:32:46.483Z,4.05
2022-08-07T18:35:00.538Z,27.42
2022-08-07T18:37:10.184Z,9.10
2022-08-07T18:40:07.085Z,3.22
2022-08-07T18:41:48.268Z,2.85
2022-08-07T18:43:57.788Z,4.50
2022-08-07T18:46:25.669Z,2.30
2022-08-07T18:49:23.803Z,2.45
2022-08-07T18:50:53.129Z,2.88
2022-08-07T18:53:06.076Z,2.70
2022-08-07T18:55:42.584Z,3.63
2022-08-07T18:57:59.507Z,4.35
2022-08-07T19:00:32.710Z,5.25
2022-08-07T19:02:36.953Z,5.72
2022-08-07T19:04:57.473Z,4.05
2022-08-07T19:07:35.162Z,6.63
2022-08-07T19:09:57.847Z,7.50
2022-08-07T19:12:05.933Z,4.28
2022-08-07T19:14:22.819Z,4.60
2022-08-07T19:18:57.810Z,3.28
2022-08-07T19:21:09.260Z,2.80
2022-08-07T19:23:18.266Z,3.97
2022-08-07T19:26:22.808Z,3.15
2022-08-07T19:30:57.473Z,3.15
2022-08-07T19:31:00.911Z,2.58
2022-08-07T19:32:44.193Z,3.35
2022-08-07T19:34:51.878Z,3.25
2022-08-07T19:36:56.767Z,3.55
2022-08-07T19:39:13.248Z,3.80
2022-08-07T19:41:17.514Z,3.35
2022-08-07T19:43:43.933Z,3.25
2022-08-07T19:46:07.325Z,3.70
2022-08-07T19:48:18.104Z,5.15
2022-08-07T19:50:43.214Z,7.22
2022-08-07T19:52:44.311Z,6.30
2022-08-07T19:55:02.923Z,3.50
2022-08-07T19:58:00.565Z,4.32
2022-08-07T19:59:41.055Z,9.65
2022-08-07T20:01:56.976Z,4.78
2022-08-07T20:04:00.872Z,6.00
2022-08-07T20:06:06.143Z,7.63
2022-08-07T20:08:10.178Z,7.35
2022-08-07T20:10:36.475Z,3.97
2022-08-07T20:12:37.929Z,4.13
2022-08-07T20:14:53.693Z,3.40
2022-08-07T20:16:56.923Z,10.52
2022-08-07T20:19:00.271Z,5.13
2022-08-07T20:21:21.455Z,6.68
2022-08-07T20:23:43.081Z,4.68
2022-08-07T20:25:46.440Z,3.95
2022-08-07T20:27:58.512Z,6.63
2022-08-07T20:30:10.870Z,3.78
2022-08-07T20:32:22.832Z,3.67
2022-08-07T20:34:49.408Z,3.95
2022-08-07T20:36:50.642Z,4.18
2022-08-07T20:39:00.579Z,7.72
2022-08-07T20:41:08.009Z,5.03
2022-08-07T20:43:14.927Z,4.22
2022-08-07T20:45:33.538Z,4.28
2022-08-07T20:47:56.279Z,6.63
2022-08-07T20:50:02.708Z,3.25
2022-08-07T20:52:14.044Z,4.18
2022-08-07T20:54:29.870Z,3.50
2022-08-07T20:56:41.026Z,5.82
2022-08-07T20:58:53.191Z,4.00
2022-08-07T21:01:01.981Z,3.28
2022-08-07T21:03:03.959Z,4.50
2022-08-07T21:05:10.293Z,4.38
2022-08-07T21:07:23.369Z,3.53
2022-08-07T21:09:52.987Z,3.97
2022-08-07T21:12:00.380Z,3.65
2022-08-07T21:14:32.620Z,3.75
2022-08-07T21:16:56.548Z,4.55
2022-08-07T21:19:02.345Z,3.72
2022-08-07T21:21:04.435Z,3.50
2022-08-07T21:23:15.444Z,3.15
2022-08-07T21:25:39.118Z,3.75
2022-08-07T21:28:01.738Z,4.50
2022-08-07T21:30:08.745Z,4.13
2022-08-07T21:32:42.939Z,3.20
2022-08-07T21:34:51.323Z,3.20
2022-08-07T21:36:52.675Z,2.83
2022-08-07T21:39:45.525Z,3.05
2022-08-07T21:42:00.632Z,3.22
2022-08-07T21:44:14.660Z,3.00
2022-08-07T21:46:35.851Z,2.90
2022-08-07T21:48:42.574Z,2.88
2022-08-07T21:50:57.609Z,3.30
2022-08-07T21:53:17.972Z,3.50
2022-08-07T21:55:42.478Z,2.78
2022-08-07T21:57:51.980Z,2.92
2022-08-07T22:00:05.785Z,3.22
2022-08-07T22:02:13.163Z,3.65
2022-08-07T22:04:26.071Z,3.30
2022-08-07T22:06:30.188Z,3.80
2022-08-07T22:08:45.619Z,3.17
2022-08-07T22:10:54.989Z,3.08
2022-08-07T22:13:00.740Z,3.25
2022-08-07T22:16:39.638Z,3.38
2022-08-07T22:18:06.474Z,3.25
2022-08-07T22:20:28.427Z,3.10
2022-08-07T22:22:34.543Z,2.85
2022-08-07T22:24:47.611Z,2.80
2022-08-07T22:27:03.286Z,3.00
2022-08-07T22:29:14.665Z,2.90
2022-08-07T22:31:45.202Z,2.78
2022-08-07T22:33:56.386Z,3.00
2022-08-07T22:36:01.114Z,3.03
2022-08-07T22:38:05.427Z,3.20
2022-08-07T22:40:25.787Z,3.20
2022-08-07T22:42:30.748Z,3.15
2022-08-07T22:44:34.466Z,2.88
2022-08-07T22:47:02.045Z,2.83
2022-08-07T22:49:09.476Z,3.08
2022-08-07T22:51:20.278Z,2.97
2022-08-07T22:54:08.050Z,3.05
2022-08-07T22:56:01.893Z,3.00
2022-08-07T22:58:21.726Z,3.10
2022-08-07T23:00:45.171Z,2.83
2022-08-07T23:06:09.576Z,3.10
2022-08-07T23:07:44.859Z,2.95
2022-08-07T23:10:37.516Z,3.00
2022-08-07T23:12:50.486Z,3.15
2022-08-07T23:15:03.944Z,3.40
2022-08-07T23:17:15.577Z,3.40
2022-08-07T23:19:52.212Z,3.20
2022-08-07T23:22:06.651Z,3.20
2022-08-07T23:24:17.320Z,3.45
2022-08-07T23:26:23.588Z,3.15
2022-08-07T23:28:53.412Z,3.33
2022-08-07T23:31:11.469Z,3.30
2022-08-07T23:34:22.514Z,3.38
2022-08-07T23:35:48.507Z,3.15
2022-08-07T23:38:14.456Z,2.85
2022-08-07T23:40:27.009Z,3.08
2022-08-07T23:42:46.887Z,2.90
2022-08-07T23:44:54.731Z,3.30
2022-08-07T23:47:05.286Z,2.97
2022-08-07T23:49:15.180Z,3.10
2022-08-07T23:53:00.428Z,3.22
2022-08-07T23:53:50.976Z,3.33
2022-08-07T23:56:07.193Z,3.17
2022-08-07T23:58:21.196Z,3.60
